Time;durP1;ratioP1;P1;durP2;ratioP2;P2;SDS_P1;SDS_P2;PMS_P1;PMS_P2;Temp;Humidity;BMP_temperature;BMP_pressure;BME280_temperature;BME280_humidity;BME280_pressure;Samples;Min_cycle;Max_cycle;Signal;HPM_P1;HPM_P2
2023/07/21 00:02:20;;;;;;;4.55;2.67;;;;;;;15.91;100.00;101385.34;5029315;28;20087;-63
2023/07/21 00:04:45;;;;;;;4.43;3.50;;;;;;;15.86;100.00;101383.84;5029948;28;20032;-66
2023/07/21 00:07:10;;;;;;;3.50;2.90;;;;;;;15.78;100.00;101376.25;5031072;28;20049;-67
2023/07/21 00:09:36;;;;;;;5.50;3.92;;;;;;;15.77;100.00;101379.81;5029711;28;20041;-66
2023/07/21 00:12:01;;;;;;;6.22;3.95;;;;;;;15.74;100.00;101382.66;5029193;28;20021;-64
2023/07/21 00:14:28;;;;;;;4.40;3.95;;;;;;;15.71;100.00;101386.28;5029315;28;20033;-67
2023/07/21 00:16:53;;;;;;;4.55;4.15;;;;;;;15.70;100.00;101383.69;5029573;28;20026;-64
2023/07/21 00:19:19;;;;;;;4.90;4.40;;;;;;;15.68;100.00;101382.94;5028760;28;20080;-68
2023/07/21 00:21:45;;;;;;;4.30;3.92;;;;;;;15.68;100.00;101386.44;5029400;28;20534;-67
2023/07/21 00:24:11;;;;;;;5.57;3.78;;;;;;;15.68;100.00;101390.91;5037251;28;20041;-64
2023/07/21 00:26:36;;;;;;;3.67;3.38;;;;;;;15.65;100.00;101384.78;5049223;28;20059;-66
2023/07/21 00:29:02;;;;;;;4.15;3.50;;;;;;;15.60;100.00;101392.13;5049195;28;20040;-66
2023/07/21 00:31:27;;;;;;;4.45;4.05;;;;;;;15.65;100.00;101387.44;5049472;28;20036;-67
2023/07/21 00:33:54;;;;;;;4.80;4.30;;;;;;;15.61;100.00;101385.88;5049252;28;20029;-66
2023/07/21 00:36:20;;;;;;;6.03;4.60;;;;;;;15.53;100.00;101385.34;5049677;28;20048;-66
2023/07/21 00:38:46;;;;;;;5.47;4.70;;;;;;;15.49;100.00;101381.13;5049039;28;20479;-66
2023/07/21 00:41:12;;;;;;;5.10;4.43;;;;;;;15.51;100.00;101379.25;5035885;28;20025;-65
2023/07/21 00:43:37;;;;;;;5.03;4.55;;;;;;;15.47;100.00;101377.69;5028585;28;20048;-64
2023/07/21 00:46:03;;;;;;;6.20;5.25;;;;;;;15.40;100.00;101377.97;5027765;28;20461;-66
2023/07/21 00:48:28;;;;;;;9.65;5.10;;;;;;;15.38;100.00;101381.63;5028747;28;20068;-64
2023/07/21 00:50:54;;;;;;;5.30;4.80;;;;;;;15.36;100.00;101371.06;5044546;28;20112;-65
2023/07/21 00:53:20;;;;;;;5.97;4.85;;;;;;;15.35;100.00;101365.84;5029139;28;20116;-65
2023/07/21 00:55:48;;;;;;;5.72;5.13;;;;;;;15.34;100.00;101367.63;5028537;28;20036;-64
2023/07/21 00:58:14;;;;;;;7.88;5.18;;;;;;;15.34;100.00;101362.31;5046253;28;20472;-65
2023/07/21 01:00:41;;;;;;;6.05;5.30;;;;;;;15.37;100.00;101362.16;5047337;28;20044;-64
2023/07/21 01:03:09;;;;;;;8.15;5.38;;;;;;;15.40;100.00;101347.88;5048567;28;20028;-66
2023/07/21 01:05:36;;;;;;;5.90;4.75;;;;;;;15.44;100.00;101345.97;5048826;28;20032;-64
2023/07/21 01:08:04;;;;;;;5.13;4.72;;;;;;;15.41;100.00;101341.63;5048717;28;20039;-66
2023/07/21 01:10:32;;;;;;;5.93;5.18;;;;;;;15.39;100.00;101341.69;5047018;28;20483;-65
2023/07/21 01:12:58;;;;;;;4.90;4.45;;;;;;;15.45;100.00;101334.41;5234230;22;19998;-63
2023/07/21 01:15:26;;;;;;;6.85;4.15;;;;;;;15.39;100.00;101344.34;5028650;28;20030;-66
2023/07/21 01:17:53;;;;;;;4.97;3.97;;;;;;;15.38;100.00;101333.84;5028166;28;20061;-66
2023/07/21 01:20:22;;;;;;;4.82;4.30;;;;;;;15.37;100.00;101330.31;5029699;28;20068;-67
2023/07/21 01:23:26;;;;;;;;;;;;;;;15.39;100.00;101331.06;5047881;28;20516;-64
2023/07/21 01:25:52;;;;;;;4.70;4.28;;;;;;;15.37;100.00;101332.97;5044108;28;19935;-64
2023/07/21 01:28:18;;;;;;;5.07;4.68;;;;;;;15.34;100.00;101327.78;5045409;28;20538;-68
2023/07/21 01:30:48;;;;;;;9.35;5.03;;;;;;;15.29;100.00;101325.34;5044611;28;20112;-67
2023/07/21 01:33:16;;;;;;;6.45;5.13;;;;;;;15.26;100.00;101328.13;5046762;28;20039;-65
2023/07/21 01:35:41;;;;;;;5.07;4.57;;;;;;;15.13;100.00;101327.84;5048762;28;20033;-68
2023/07/21 01:38:07;;;;;;;8.27;4.32;;;;;;;15.08;100.00;101323.69;5047402;28;20033;-65
2023/07/21 01:40:33;;;;;;;6.30;4.10;;;;;;;15.01;100.00;101328.41;5048712;28;20116;-66
2023/07/21 01:42:58;;;;;;;5.97;4.20;;;;;;;15.01;100.00;101315.13;5048684;28;20072;-63
2023/07/21 01:45:24;;;;;;;10.77;5.00;;;;;;;14.97;100.00;101318.84;5049972;28;20451;-64
2023/07/21 01:47:49;;;;;;;5.35;4.03;;;;;;;14.98;100.00;101318.78;5050921;28;20040;-63
2023/07/21 01:50:16;;;;;;;5.50;4.35;;;;;;;14.98;100.00;101321.44;5048446;28;20039;-66
2023/07/21 01:52:44;;;;;;;5.20;4.55;;;;;;;14.96;100.00;101317.97;5047548;28;20033;-66
2023/07/21 01:55:26;;;;;;;6.13;4.10;;;;;;;14.97;100.00;101322.38;5033740;28;20163;-66
2023/07/21 01:57:55;;;;;;;5.95;4.75;;;;;;;14.99;100.00;101320.50;5027729;28;20498;-67
2023/07/21 02:00:24;;;;;;;6.47;4.57;;;;;;;15.00;100.00;101319.59;5026143;28;20029;-66
2023/07/21 02:02:51;;;;;;;5.05;4.18;;;;;;;15.05;100.00;101318.50;5029155;28;20383;-68
2023/07/21 02:05:24;;;;;;;5.68;5.07;;;;;;;15.09;100.00;101322.75;5029669;28;20029;-63
2023/07/21 02:07:50;;;;;;;11.85;6.70;;;;;;;15.09;100.00;101310.34;5030229;28;20089;-67
2023/07/21 02:10:16;;;;;;;6.97;5.97;;;;;;;15.06;100.00;101315.78;5030174;28;20036;-66
2023/07/21 02:12:42;;;;;;;5.95;5.45;;;;;;;15.04;100.00;101317.63;5030899;28;20029;-67
2023/07/21 02:15:08;;;;;;;8.10;6.13;;;;;;;15.02;100.00;101322.19;5030072;28;20073;-67
2023/07/21 02:17:34;;;;;;;5.65;4.82;;;;;;;15.02;100.00;101323.00;5029846;28;20379;-65
2023/07/21 02:19:59;;;;;;;7.90;6.22;;;;;;;15.01;100.00;101317.78;5046364;28;20083;-63
2023/07/21 02:22:25;;;;;;;7.03;5.47;;;;;;;15.01;100.00;101310.69;5051084;28;20074;-66
2023/07/21 02:24:50;;;;;;;6.35;5.75;;;;;;;15.02;100.00;101314.22;5049614;28;20017;-65
2023/07/21 02:27:15;;;;;;;7.97;6.72;;;;;;;15.01;100.00;101317.78;5051471;28;20430;-67
2023/07/21 02:29:41;;;;;;;9.23;6.75;;;;;;;15.01;100.00;101309.81;5048626;28;20036;-67
2023/07/21 02:32:07;;;;;;;7.05;5.78;;;;;;;15.02;100.00;101314.22;5048425;28;20044;-67
2023/07/21 02:34:32;;;;;;;8.45;6.95;;;;;;;15.00;100.00;101318.72;5050324;28;20452;-68
2023/07/21 02:36:57;;;;;;;9.18;6.20;;;;;;;14.99;100.00;101312.53;5051731;28;20030;-64
2023/07/21 02:39:23;;;;;;;7.95;6.57;;;;;;;14.99;100.00;101307.22;5050962;28;20025;-66
2023/07/21 02:41:48;;;;;;;9.98;7.00;;;;;;;15.03;100.00;101313.28;5049692;28;20075;-67
2023/07/21 02:44:14;;;;;;;10.35;7.20;;;;;;;14.99;100.00;101301.09;5053388;28;20479;-65
2023/07/21 02:46:39;;;;;;;6.60;5.95;;;;;;;15.03;100.00;101305.31;5051223;28;20029;-66
2023/07/21 02:49:05;;;;;;;8.52;6.57;;;;;;;14.98;100.00;101302.00;5053681;28;20025;-65
2023/07/21 02:51:30;;;;;;;7.88;6.25;;;;;;;14.94;100.00;101300.41;5053374;28;20037;-65
2023/07/21 02:53:56;;;;;;;8.98;6.53;;;;;;;14.86;100.00;101298.97;5054739;28;20033;-65
2023/07/21 02:56:21;;;;;;;7.00;6.32;;;;;;;14.79;100.00;101300.19;5054547;28;20557;-68
2023/07/21 02:58:48;;;;;;;6.57;5.93;;;;;;;14.70;100.00;101292.59;5054300;28;20029;-65
2023/07/21 03:01:14;;;;;;;8.05;6.55;;;;;;;14.61;100.00;101291.22;5050802;28;20108;-65
2023/07/21 03:03:41;;;;;;;8.15;6.78;;;;;;;14.51;100.00;101293.41;5054421;28;20044;-65
2023/07/21 03:06:07;;;;;;;7.80;6.88;;;;;;;14.49;100.00;101292.59;5054200;28;20017;-66
2023/07/21 03:08:33;;;;;;;8.93;6.28;;;;;;;14.43;100.00;101290.22;5052092;28;20025;-62
2023/07/21 03:10:59;;;;;;;7.93;7.13;;;;;;;14.38;100.00;101293.94;5054276;28;20033;-65
2023/07/21 03:13:25;;;;;;;9.27;7.43;;;;;;;14.33;100.00;101295.91;5053566;28;20052;-67
2023/07/21 03:15:51;;;;;;;9.93;6.78;;;;;;;14.30;100.00;101295.19;5053610;28;20124;-65
2023/07/21 03:18:17;;;;;;;9.50;7.28;;;;;;;14.25;100.00;101290.06;5053606;28;20116;-66
2023/07/21 03:20:42;;;;;;;10.13;7.30;;;;;;;14.22;100.00;101285.78;5053176;28;20017;-63
2023/07/21 03:23:08;;;;;;;11.68;7.43;;;;;;;14.19;100.00;101277.06;5054782;28;20049;-66
2023/07/21 03:25:34;;;;;;;12.30;7.53;;;;;;;14.14;100.00;101286.09;5054539;28;20025;-66
2023/07/21 03:27:59;;;;;;;11.48;7.72;;;;;;;14.11;100.00;101285.34;5054318;28;20084;-65
2023/07/21 03:30:25;;;;;;;9.55;7.47;;;;;;;14.08;100.00;101282.81;5053191;28;20071;-67
2023/07/21 03:32:50;;;;;;;10.30;8.30;;;;;;;14.07;100.00;101279.31;5054397;28;20033;-66
2023/07/21 03:35:16;;;;;;;10.07;8.00;;;;;;;14.11;100.00;101274.75;5053056;28;20027;-65
2023/07/21 03:37:41;;;;;;;9.77;7.80;;;;;;;14.11;100.00;101280.03;5054866;28;20026;-66
2023/07/21 03:40:07;;;;;;;11.52;7.43;;;;;;;14.11;100.00;101280.91;5054038;28;20025;-67
2023/07/21 03:42:34;;;;;;;10.45;7.85;;;;;;;14.08;100.00;101275.75;5050646;28;20017;-67
2023/07/21 03:45:04;;;;;;;11.82;8.05;;;;;;;14.08;100.00;101275.75;5049677;28;20029;-66
2023/07/21 03:47:33;;;;;;;10.73;8.40;;;;;;;14.05;100.00;101281.16;5051708;28;20021;-66
2023/07/21 03:49:58;;;;;;;;;;;;;;;14.02;100.00;101276.88;5053190;28;20027;-64
2023/07/21 03:52:24;;;;;;;10.95;8.00;;;;;;;14.01;100.00;101275.16;5053895;28;20003;-65
2023/07/21 03:54:49;;;;;;;10.23;8.20;;;;;;;14.02;100.00;101266.25;5050708;28;20091;-65
2023/07/21 03:57:15;;;;;;;13.05;8.10;;;;;;;14.02;100.00;101268.91;5053706;28;20434;-66
2023/07/21 03:59:42;;;;;;;10.15;8.05;;;;;;;14.07;100.00;101266.06;5050766;28;20071;-62
2023/07/21 04:02:08;;;;;;;11.90;8.68;;;;;;;14.10;100.00;101262.44;5052240;28;20021;-66
2023/07/21 04:04:33;;;;;;;10.15;7.47;;;;;;;14.17;100.00;101263.03;5049365;28;20433;-67
2023/07/21 04:07:05;;;;;;;9.00;7.40;;;;;;;14.28;100.00;101259.00;5049947;28;20029;-66
2023/07/21 04:09:31;;;;;;;8.57;7.65;;;;;;;14.35;100.00;101256.94;5050000;28;20043;-67
2023/07/21 04:11:56;;;;;;;10.73;7.40;;;;;;;14.40;100.00;101249.66;5050108;28;20017;-67
2023/07/21 04:14:21;;;;;;;7.75;7.00;;;;;;;14.44;100.00;101250.38;5046971;28;20051;-67
2023/07/21 04:16:47;;;;;;;9.95;7.78;;;;;;;14.58;100.00;101243.59;5048204;28;20452;-66
2023/07/21 04:19:12;;;;;;;9.45;7.32;;;;;;;14.64;100.00;101251.28;5049998;28;20075;-67
2023/07/21 04:21:37;;;;;;;11.77;7.43;;;;;;;14.78;100.00;101248.91;5049885;28;20049;-67
2023/07/21 04:24:03;;;;;;;8.73;7.10;;;;;;;14.94;100.00;101250.00;5049887;28;20036;-65
2023/07/21 04:26:29;;;;;;;9.70;7.30;;;;;;;14.96;100.00;101250.81;5049669;28;20025;-65
2023/07/21 04:28:54;;;;;;;10.30;7.30;;;;;;;15.02;100.00;101255.84;5050323;28;20028;-67
2023/07/21 04:31:21;;;;;;;10.65;7.47;;;;;;;15.02;100.00;101254.03;5050032;28;20021;-65
2023/07/21 04:33:48;;;;;;;8.30;7.22;;;;;;;15.05;100.00;101255.66;5029529;28;20055;-66
2023/07/21 04:36:14;;;;;;;8.63;6.97;;;;;;;15.14;100.00;101257.06;5028475;28;20018;-63
2023/07/21 04:38:40;;;;;;;10.25;7.50;;;;;;;15.16;100.00;101250.75;5029068;28;20083;-65
2023/07/21 04:41:05;;;;;;;8.60;7.28;;;;;;;15.22;100.00;101251.38;5027935;28;20021;-66
2023/07/21 04:43:31;;;;;;;8.35;6.80;;;;;;;15.27;100.00;101250.22;5029272;28;20464;-64
2023/07/21 04:45:56;;;;;;;9.35;6.75;;;;;;;15.32;100.00;101244.69;5026701;28;20271;-65
2023/07/21 04:48:21;;;;;;;9.13;7.05;;;;;;;15.39;100.00;101247.94;5028418;28;20025;-66
2023/07/21 04:50:53;;;;;;;8.35;6.47;;;;;;;15.46;100.00;101241.38;5030904;28;20634;-65
2023/07/21 04:53:18;;;;;;;9.48;6.82;;;;;;;15.51;100.00;101244.66;5029703;28;20557;-66
2023/07/21 04:55:44;;;;;;;9.40;6.75;;;;;;;15.59;100.00;101241.63;5028845;28;20025;-68
2023/07/21 04:58:09;;;;;;;10.13;7.22;;;;;;;15.64;100.00;101231.66;5028982;28;20395;-65
2023/07/21 05:00:34;;;;;;;9.05;6.55;;;;;;;15.72;100.00;101233.94;5027540;28;20379;-64
2023/07/21 05:03:00;;;;;;;7.35;5.88;;;;;;;15.85;100.00;101239.50;5048208;28;20029;-65
2023/07/21 05:05:27;;;;;;;10.50;6.20;;;;;;;15.99;100.00;101248.59;5029220;28;20422;-64
2023/07/21 05:07:53;;;;;;;8.98;6.45;;;;;;;16.09;100.00;101239.22;5028374;28;20026;-65
2023/07/21 05:10:18;;;;;;;8.68;5.97;;;;;;;16.11;100.00;101245.34;5028136;28;20296;-63
2023/07/21 05:12:43;;;;;;;6.68;5.55;;;;;;;16.19;100.00;101238.78;5029123;28;20032;-66
2023/07/21 05:15:09;;;;;;;6.72;6.00;;;;;;;16.17;100.00;101238.84;5028467;28;20052;-66
2023/07/21 05:17:34;;;;;;;8.13;6.60;;;;;;;16.23;100.00;101237.66;5030152;28;20025;-68
2023/07/21 05:20:00;;;;;;;9.85;6.10;;;;;;;16.29;100.00;101237.34;5029482;28;20029;-66
2023/07/21 05:22:26;;;;;;;11.85;7.63;;;;;;;16.35;100.00;101239.69;5029635;28;20036;-65
2023/07/21 05:24:51;;;;;;;6.70;5.75;;;;;;;16.48;100.00;101236.38;5029988;28;20030;-65
2023/07/21 05:27:17;;;;;;;8.52;6.32;;;;;;;16.51;100.00;101233.56;5029646;28;20383;-65
2023/07/21 05:29:42;;;;;;;9.05;6.43;;;;;;;16.58;100.00;101231.44;5028039;28;20584;-67
2023/07/21 05:32:08;;;;;;;7.32;6.30;;;;;;;16.63;100.00;101229.38;5019381;28;20392;-66
2023/07/21 05:34:34;;;;;;;20.40;7.03;;;;;;;16.66;100.00;101230.09;5027492;28;20151;-66
2023/07/21 05:37:00;;;;;;;8.45;6.80;;;;;;;16.67;100.00;101229.13;5029777;28;20025;-67
2023/07/21 05:39:29;;;;;;;9.02;6.53;;;;;;;16.65;100.00;101236.34;5028164;28;20029;-65
2023/07/21 05:41:56;;;;;;;8.45;6.20;;;;;;;16.73;100.00;101230.59;5020465;28;20022;-65
2023/07/21 05:44:21;;;;;;;10.73;7.28;;;;;;;16.74;100.00;101228.81;5028809;28;20029;-63
2023/07/21 05:46:46;;;;;;;9.48;6.65;;;;;;;16.77;100.00;101226.00;5020060;28;20053;-65
2023/07/21 05:49:14;;;;;;;7.75;6.47;;;;;;;16.78;100.00;101227.69;5013769;28;20037;-65
2023/07/21 05:51:39;;;;;;;8.52;6.03;;;;;;;16.80;100.00;101228.50;5037770;28;20027;-66
2023/07/21 05:54:05;;;;;;;6.85;5.63;;;;;;;16.92;100.00;101227.81;5038520;28;20029;-66
2023/07/21 05:56:30;;;;;;;7.18;6.47;;;;;;;16.99;100.00;101227.47;5026519;28;20104;-64
2023/07/21 05:58:55;;;;;;;11.27;6.65;;;;;;;16.99;100.00;101223.03;5028079;28;20018;-66
2023/07/21 06:01:23;;;;;;;9.30;6.63;;;;;;;17.10;100.00;101226.91;5026287;28;20076;-65
2023/07/21 06:03:48;;;;;;;8.68;6.35;;;;;;;17.14;100.00;101226.66;5026181;28;20033;-62
2023/07/21 06:06:13;;;;;;;9.40;6.15;;;;;;;17.24;100.00;101223.47;5030360;28;20032;-66
2023/07/21 06:08:39;;;;;;;8.88;6.63;;;;;;;17.26;100.00;101213.59;5027095;28;20041;-66
2023/07/21 06:11:04;;;;;;;10.52;6.90;;;;;;;17.33;100.00;101228.28;5027162;28;20508;-64
2023/07/21 06:13:29;;;;;;;8.13;6.78;;;;;;;17.47;100.00;101221.31;5026725;28;20064;-66
2023/07/21 06:15:56;;;;;;;7.35;6.65;;;;;;;17.49;100.00;101222.94;5026863;28;20021;-64
2023/07/21 06:18:21;;;;;;;9.50;6.63;;;;;;;17.59;100.00;101228.63;5026386;28;20487;-65
2023/07/21 06:20:47;;;;;;;8.20;6.53;;;;;;;17.58;100.00;101226.03;5026986;28;20033;-65
2023/07/21 06:23:12;;;;;;;9.55;6.65;;;;;;;17.79;100.00;101234.59;5025849;28;20045;-66
2023/07/21 06:25:38;;;;;;;6.93;5.15;;;;;;;17.95;100.00;101237.22;5028777;28;20048;-62
2023/07/21 06:28:03;;;;;;;10.32;6.80;;;;;;;17.92;100.00;101238.25;5027329;28;20029;-64
2023/07/21 06:30:30;;;;;;;7.20;6.10;;;;;;;18.00;100.00;101239.63;5024572;28;20680;-62
2023/07/21 06:32:55;;;;;;;11.05;6.55;;;;;;;18.00;100.00;101240.44;5026417;28;20026;-64
2023/07/21 06:35:21;;;;;;;12.02;7.40;;;;;;;18.05;100.00;101240.19;5027016;28;20108;-66
2023/07/21 06:37:46;;;;;;;15.80;8.02;;;;;;;18.12;100.00;101238.06;5026904;28;20021;-66
2023/07/21 06:40:11;;;;;;;14.45;8.00;;;;;;;17.99;100.00;101241.41;5027383;28;20029;-65
2023/07/21 06:42:37;;;;;;;11.23;7.65;;;;;;;18.17;100.00;101234.16;5026401;28;20379;-66
2023/07/21 06:45:02;;;;;;;15.38;8.30;;;;;;;18.18;100.00;101243.88;5025522;28;20061;-66
2023/07/21 06:47:28;;;;;;;17.98;8.32;;;;;;;18.32;100.00;101236.84;5027068;28;20052;-62
2023/07/21 06:49:53;;;;;;;19.05;8.15;;;;;;;18.45;100.00;101236.94;5026878;28;20064;-66
2023/07/21 06:52:19;;;;;;;20.23;8.07;;;;;;;18.62;100.00;101232.38;5026909;28;20035;-66
2023/07/21 06:54:44;;;;;;;12.68;8.57;;;;;;;18.77;100.00;101233.25;5026546;28;20048;-66
2023/07/21 06:57:10;;;;;;;13.80;7.60;;;;;;;18.81;100.00;101238.28;5027472;28;20422;-67
2023/07/21 06:59:38;;;;;;;12.00;7.30;;;;;;;18.84;100.00;101229.22;5026759;28;20622;-67
2023/07/21 07:02:04;;;;;;;13.90;6.78;;;;;;;18.96;100.00;101226.75;5044588;28;20036;-63
2023/07/21 07:04:29;;;;;;;7.75;6.72;;;;;;;18.90;100.00;101228.84;5046312;28;20029;-66
2023/07/21 07:06:55;;;;;;;12.88;6.68;;;;;;;18.88;100.00;101230.78;5047297;28;20463;-64
2023/07/21 07:09:24;;;;;;;12.63;6.40;;;;;;;18.83;100.00;101224.84;5047023;28;20391;-65
2023/07/21 07:11:50;;;;;;;12.35;6.32;;;;;;;18.91;100.00;101227.03;5047648;28;20024;-62
2023/07/21 07:14:16;;;;;;;11.15;6.75;;;;;;;19.11;100.00;101228.47;5046576;28;20048;-67
2023/07/21 07:16:41;;;;;;;12.75;6.07;;;;;;;19.38;100.00;101230.31;5046729;28;20074;-65
2023/07/21 07:19:06;;;;;;;9.73;5.90;;;;;;;19.55;100.00;101223.00;5046696;28;20029;-65
2023/07/21 07:21:32;;;;;;;8.57;5.35;;;;;;;19.75;100.00;101228.84;5032401;28;20037;-67
2023/07/21 07:23:58;;;;;;;7.63;6.00;;;;;;;19.76;100.00;101225.19;5026318;28;20034;-64
2023/07/21 07:26:23;;;;;;;9.98;6.18;;;;;;;19.65;100.00;101229.44;5025841;28;20037;-66
2023/07/21 07:28:48;;;;;;;7.57;6.72;;;;;;;19.79;98.85;101227.66;5027182;28;20064;-66
2023/07/21 07:31:14;;;;;;;10.23;6.45;;;;;;;19.77;100.00;101224.22;5028962;28;20030;-65
2023/07/21 07:33:40;;;;;;;9.07;5.63;;;;;;;19.89;100.00;101228.75;5029884;28;20082;-67
2023/07/21 07:36:05;;;;;;;6.03;5.35;;;;;;;20.12;100.00;101229.06;5030521;28;20014;-67
2023/07/21 07:38:31;;;;;;;8.98;5.03;;;;;;;20.12;100.00;101229.06;5030178;28;20075;-66
2023/07/21 07:41:05;;;;;;;5.20;4.38;;;;;;;20.29;98.06;101227.03;5029661;28;20391;-67
2023/07/21 07:43:32;;;;;;;6.18;4.45;;;;;;;20.15;96.85;101228.84;5012042;28;20476;-65
2023/07/21 07:45:57;;;;;;;15.45;4.93;;;;;;;20.00;98.98;101228.03;5029310;28;20159;-66
2023/07/21 07:48:23;;;;;;;4.03;3.10;;;;;;;20.30;96.19;101221.56;5030214;28;20104;-66
2023/07/21 07:50:49;;;;;;;2.67;1.80;;;;;;;20.51;93.41;101221.03;5029501;28;20407;-67
2023/07/21 07:53:14;;;;;;;2.05;1.25;;;;;;;20.60;94.17;101230.25;5029474;28;20040;-64
2023/07/21 07:55:44;;;;;;;1.65;1.55;;;;;;;20.71;94.30;101224.97;5028335;28;20029;-67
2023/07/21 07:58:10;;;;;;;3.08;2.50;;;;;;;20.93;94.91;101223.47;5030062;28;20032;-70
2023/07/21 08:00:38;;;;;;;8.30;2.83;;;;;;;20.97;95.75;101221.41;5027915;28;20137;-67
2023/07/21 08:03:04;;;;;;;2.92;2.63;;;;;;;21.20;91.43;101225.09;5029003;28;20022;-68
2023/07/21 08:05:30;;;;;;;4.53;2.60;;;;;;;21.37;89.73;101222.16;5028518;28;20460;-67
2023/07/21 08:07:58;;;;;;;2.67;1.90;;;;;;;21.51;87.25;101221.97;5029260;28;20021;-66
2023/07/21 08:10:29;;;;;;;3.80;2.33;;;;;;;21.50;86.52;101214.03;5030192;28;20048;-67
2023/07/21 08:12:58;;;;;;;10.73;3.08;;;;;;;21.18;84.20;101221.69;5029851;28;20095;-68
2023/07/21 08:15:24;;;;;;;6.28;2.30;;;;;;;21.51;84.14;101227.34;5040638;28;20053;-66
2023/07/21 08:17:50;;;;;;;2.28;1.70;;;;;;;21.60;83.15;101223.09;5028558;28;20471;-65
2023/07/21 08:20:19;;;;;;;1.50;1.40;;;;;;;21.75;82.30;101229.19;5028291;28;20022;-67
2023/07/21 08:22:48;;;;;;;1.92;1.48;;;;;;;21.59;82.05;101222.25;5027559;28;20480;-68
2023/07/21 08:25:16;;;;;;;3.00;1.13;;;;;;;21.90;80.13;101227.16;5022799;28;20025;-66
2023/07/21 08:27:41;;;;;;;3.17;1.17;;;;;;;22.09;78.83;101229.28;5028804;28;20683;-68
2023/07/21 08:30:10;;;;;;;2.53;1.83;;;;;;;21.77;78.68;101231.75;5029489;28;20030;-67
2023/07/21 08:32:36;;;;;;;5.43;1.90;;;;;;;21.99;77.60;101230.09;5024974;28;20021;-66
2023/07/21 08:35:03;;;;;;;3.55;1.65;;;;;;;22.25;74.23;101228.09;5028027;28;20017;-67
2023/07/21 08:37:29;;;;;;;4.72;1.42;;;;;;;22.16;74.47;101226.13;5028220;28;20060;-65
2023/07/21 08:39:54;;;;;;;8.52;2.63;;;;;;;22.33;73.96;101235.53;5027692;28;20357;-66
2023/07/21 08:42:21;;;;;;;3.75;1.80;;;;;;;22.47;72.85;101227.28;5028472;28;20063;-66
2023/07/21 08:44:47;;;;;;;3.35;1.83;;;;;;;22.63;70.58;101228.75;5026986;28;20021;-64
2023/07/21 08:47:13;;;;;;;4.85;2.03;;;;;;;22.53;71.13;101227.75;5027386;28;20047;-66
2023/07/21 08:49:40;;;;;;;2.10;1.80;;;;;;;21.91;74.05;101231.53;5028464;28;20112;-68
2023/07/21 08:52:06;;;;;;;8.52;1.85;;;;;;;22.19;71.90;101228.56;5028414;28;20414;-67
2023/07/21 08:54:32;;;;;;;3.88;1.92;;;;;;;22.21;71.43;101224.78;5028032;28;20022;-68
2023/07/21 08:56:57;;;;;;;2.25;1.73;;;;;;;22.22;70.66;101226.50;5027870;28;20029;-65
2023/07/21 08:59:23;;;;;;;3.42;2.13;;;;;;;22.34;70.78;101218.47;5027099;28;20076;-68
2023/07/21 09:01:48;;;;;;;2.50;2.30;;;;;;;21.84;71.28;101220.44;5025799;28;20021;-66
2023/07/21 09:04:24;;;;;;;5.68;2.50;;;;;;;21.98;72.18;101217.66;5027703;28;20511;-67
2023/07/21 09:06:57;;;;;;;3.33;2.50;;;;;;;22.34;71.05;101213.94;5026073;28;20109;-68
2023/07/21 09:09:27;;;;;;;8.25;2.50;;;;;;;22.43;68.09;101212.34;5025468;28;20045;-66
2023/07/21 09:12:03;;;;;;;7.35;2.03;;;;;;;22.25;66.88;101203.09;5027401;28;20048;-68
2023/07/21 09:14:35;;;;;;;3.47;1.70;;;;;;;22.24;66.35;101204.06;5025230;28;20042;-63
2023/07/21 09:17:02;;;;;;;2.63;1.58;;;;;;;22.15;69.10;101203.78;5027866;28;20029;-68
2023/07/21 09:19:28;;;;;;;1.85;1.45;;;;;;;21.62;70.76;101213.13;5028285;28;20012;-65
2023/07/21 09:21:55;;;;;;;2.03;1.80;;;;;;;22.01;69.27;101212.94;5028635;28;20033;-65
2023/07/21 09:24:20;;;;;;;4.25;1.58;;;;;;;22.26;68.12;101205.66;5028292;28;20051;-67
2023/07/21 09:26:46;;;;;;;1.65;1.55;;;;;;;22.62;68.16;101205.56;5036218;28;20420;-64
2023/07/21 09:29:18;;;;;;;2.63;1.58;;;;;;;22.90;68.53;101205.19;5046379;28;20041;-68
2023/07/21 09:31:44;;;;;;;6.28;1.85;;;;;;;23.06;66.29;101202.13;5047082;28;20021;-69
2023/07/21 09:34:09;;;;;;;3.10;1.58;;;;;;;23.18;65.76;101201.09;5045328;28;20114;-69
2023/07/21 09:36:35;;;;;;;3.63;1.58;;;;;;;22.85;65.62;101200.19;5045463;28;20068;-67
2023/07/21 09:39:04;;;;;;;3.45;1.85;;;;;;;23.13;65.64;101197.94;5031025;28;20030;-68
2023/07/21 09:41:33;;;;;;;1.73;1.27;;;;;;;23.35;64.56;101201.53;5033711;28;20370;-68
2023/07/21 09:44:00;;;;;;;1.10;1.08;;;;;;;23.29;63.74;101210.09;5041553;28;20098;-69
2023/07/21 09:46:25;;;;;;;1.38;1.25;;;;;;;22.88;64.98;101215.19;5027023;28;20472;-66
2023/07/21 09:48:51;;;;;;;1.52;1.30;;;;;;;22.51;67.83;101213.63;5024685;28;20076;-68
2023/07/21 09:51:18;;;;;;;3.40;1.40;;;;;;;22.00;77.95;101223.78;5025722;28;20057;-67
2023/07/21 09:53:44;;;;;;;4.80;2.00;;;;;;;21.48;84.77;101226.69;5024270;28;20032;-64
2023/07/21 09:56:11;;;;;;;2.03;1.83;;;;;;;21.03;90.70;101222.78;5026076;28;20022;-74
2023/07/21 09:58:52;;;;;;;5.78;2.58;;;;;;;20.62;96.98;101230.13;5025791;28;20094;-71
2023/07/21 10:01:18;;;;;;;3.72;2.10;;;;;;;20.53;98.25;101227.13;5027605;28;20056;-70
2023/07/21 10:03:44;;;;;;;3.97;2.22;;;;;;;20.41;100.00;101228.00;5027111;28;20073;-68
2023/07/21 10:06:09;;;;;;;5.82;2.25;;;;;;;20.23;100.00;101230.13;5026331;28;20044;-71
2023/07/21 10:08:36;;;;;;;4.10;2.20;;;;;;;20.05;100.00;101223.25;5027361;28;20071;-68
2023/07/21 10:11:03;;;;;;;2.97;2.20;;;;;;;19.95;100.00;101228.34;5027529;28;20025;-72
2023/07/21 10:13:30;;;;;;;2.42;1.77;;;;;;;19.81;100.00;101228.44;5026421;28;20042;-67
2023/07/21 10:16:09;;;;;;;2.55;1.65;;;;;;;19.77;100.00;101229.56;5028866;28;20036;-71
2023/07/21 10:18:35;;;;;;;4.97;2.20;;;;;;;19.64;100.00;101227.75;5047827;28;20025;-71
2023/07/21 10:21:01;;;;;;;4.85;2.35;;;;;;;19.64;100.00;101229.53;5047793;28;20025;-69
2023/07/21 10:23:36;;;;;;;6.13;2.30;;;;;;;19.59;100.00;101231.69;5045944;28;20699;-72
2023/07/21 10:26:08;;;;;;;2.38;2.17;;;;;;;19.09;100.00;101229.53;5023196;28;20033;-71
2023/07/21 10:28:34;;;;;;;3.05;2.25;;;;;;;18.92;100.00;101229.63;5025724;28;20017;-73
2023/07/21 10:31:25;;;;;;;5.18;2.15;;;;;;;18.72;100.00;101232.69;5025691;28;20104;-72
2023/07/21 10:34:06;;;;;;;2.05;1.70;;;;;;;18.66;100.00;101233.94;5026782;28;20033;-73
2023/07/21 10:36:40;;;;;;;4.22;2.10;;;;;;;18.87;100.00;101229.03;5027335;28;20128;-74
2023/07/21 10:39:10;;;;;;;3.55;2.10;;;;;;;19.08;100.00;101230.50;5027203;28;20462;-73
2023/07/21 10:41:39;;;;;;;1.95;1.80;;;;;;;19.23;100.00;101236.66;5040234;28;20514;-73
2023/07/21 10:44:06;;;;;;;;;;;;;;;19.14;100.00;101252.31;5030522;28;20025;-65
2023/07/21 10:46:35;;;;;;;3.65;2.20;;;;;;;19.31;100.00;101266.41;5026202;28;19943;-73
2023/07/21 10:49:00;;;;;;;7.60;2.65;;;;;;;19.08;100.00;101252.69;5024313;28;20426;-68
2023/07/21 10:51:26;;;;;;;8.20;2.75;;;;;;;18.63;100.00;101261.66;5027332;28;20029;-70
2023/07/21 10:53:51;;;;;;;4.20;2.15;;;;;;;18.57;100.00;101251.34;5042008;28;20035;-71
2023/07/21 10:56:16;;;;;;;4.20;1.67;;;;;;;18.79;100.00;101250.88;5046627;28;20484;-69
2023/07/21 10:58:42;;;;;;;4.80;1.98;;;;;;;19.16;100.00;101245.06;5037540;28;20033;-67
2023/07/21 11:01:08;;;;;;;4.55;1.40;;;;;;;19.68;100.00;101239.94;5026984;28;20368;-69
2023/07/21 11:03:33;;;;;;;2.05;1.08;;;;;;;19.93;100.00;101240.94;5025965;28;20029;-69
2023/07/21 11:05:59;;;;;;;2.30;1.58;;;;;;;19.91;100.00;101248.25;5030492;28;20072;-67
2023/07/21 11:08:28;;;;;;;3.05;1.42;;;;;;;20.13;100.00;101237.91;5030931;28;20022;-72
2023/07/21 11:10:54;;;;;;;2.45;1.50;;;;;;;20.26;100.00;101249.47;5028687;28;20521;-67
2023/07/21 11:13:23;;;;;;;3.20;1.70;;;;;;;20.25;100.00;101244.25;5029304;28;20219;-68
2023/07/21 11:15:54;;;;;;;6.00;1.92;;;;;;;20.56;100.00;101234.94;5030428;28;21008;-71